createdAt,value
2023-05-03T00:01:44.839Z,5.67
2023-05-03T00:04:11.917Z,6.07
2023-05-03T00:06:39.057Z,6.87
2023-05-03T00:09:06.249Z,6.17
2023-05-03T00:11:34.302Z,6.27
2023-05-03T00:14:01.509Z,6.03
2023-05-03T00:16:28.705Z,6.43
2023-05-03T00:18:55.926Z,6.93
2023-05-03T00:21:23.101Z,7.00
2023-05-03T00:23:50.249Z,6.00
2023-05-03T00:26:17.320Z,6.60
2023-05-03T00:28:44.960Z,5.50
2023-05-03T00:31:12.148Z,6.83
2023-05-03T00:33:40.100Z,6.90
2023-05-03T00:36:12.809Z,6.40
2023-05-03T00:38:41.201Z,6.13
2023-05-03T00:41:10.616Z,5.97
2023-05-03T00:43:38.019Z,7.20
2023-05-03T00:46:16.006Z,6.50
2023-05-03T00:48:49.485Z,6.87
2023-05-03T00:51:16.752Z,6.57
2023-05-03T00:53:44.058Z,6.37
2023-05-03T00:56:12.091Z,6.07
2023-05-03T00:58:40.711Z,6.20
2023-05-03T01:01:08.907Z,5.87
2023-05-03T01:03:41.502Z,5.73
2023-05-03T01:06:33.575Z,6.20
2023-05-03T01:36:34.277Z,5.00
2023-05-03T01:39:07.819Z,4.77
2023-05-03T01:41:38.065Z,4.50
2023-05-03T01:44:06.907Z,4.07
2023-05-03T01:46:33.962Z,4.23
2023-05-03T01:49:01.058Z,5.20
2023-05-03T01:51:29.710Z,5.20
2023-05-03T01:53:56.845Z,4.00
2023-05-03T01:56:23.898Z,4.60
2023-05-03T01:58:51.013Z,3.93
2023-05-03T02:01:18.077Z,3.77
2023-05-03T02:03:45.398Z,4.33
2023-05-03T02:06:12.500Z,3.83
2023-05-03T02:08:39.640Z,3.50
2023-05-03T02:11:06.728Z,3.90
2023-05-03T02:13:34.726Z,4.03
2023-05-03T02:16:01.786Z,3.73
2023-05-03T02:18:33.652Z,3.80
2023-05-03T02:21:00.876Z,3.70
2023-05-03T02:23:28.042Z,3.70
2023-05-03T02:25:55.133Z,3.87
2023-05-03T02:28:22.195Z,4.00
2023-05-03T02:30:49.391Z,4.43
2023-05-03T02:33:17.456Z,3.57
2023-05-03T02:35:44.554Z,4.67
2023-05-03T02:38:12.075Z,3.80
2023-05-03T02:40:39.228Z,3.90
2023-05-03T02:43:06.558Z,4.30
2023-05-03T02:45:36.806Z,4.90
2023-05-03T02:48:04.186Z,3.20
2023-05-03T02:50:31.563Z,4.10
2023-05-03T02:52:58.624Z,4.00
2023-05-03T02:55:26.004Z,5.20
2023-05-03T02:57:53.442Z,3.80
2023-05-03T03:00:21.140Z,4.07
2023-05-03T03:02:48.354Z,3.13
2023-05-03T03:05:15.504Z,3.20
2023-05-03T03:07:47.517Z,5.43
2023-05-03T03:10:14.734Z,3.90
2023-05-03T03:12:41.998Z,3.70
2023-05-03T03:15:13.413Z,4.67
2023-05-03T03:17:40.587Z,4.20
2023-05-03T03:20:13.885Z,4.00
2023-05-03T03:22:45.616Z,3.77
2023-05-03T03:25:13.068Z,4.20
2023-05-03T03:27:40.237Z,4.00
2023-05-03T03:30:09.593Z,3.77
2023-05-03T03:32:45.128Z,5.03
2023-05-03T03:35:17.784Z,4.53
2023-05-03T03:37:44.881Z,4.03
2023-05-03T03:40:12.909Z,4.43
2023-05-03T03:42:40.895Z,4.03
2023-05-03T03:45:08.884Z,3.70
2023-05-03T03:47:36.028Z,4.50
2023-05-03T03:50:03.761Z,3.53
2023-05-03T03:52:32.696Z,4.27
2023-05-03T03:55:00.190Z,4.30
2023-05-03T03:57:31.582Z,3.33
2023-05-03T04:00:00.070Z,3.87
2023-05-03T04:02:28.782Z,3.50
2023-05-03T04:04:55.972Z,3.63
2023-05-03T04:07:23.031Z,3.13
2023-05-03T04:09:50.600Z,3.63
2023-05-03T04:12:18.399Z,2.40
2023-05-03T04:14:47.049Z,2.67
2023-05-03T04:17:14.724Z,3.47
2023-05-03T04:19:42.171Z,2.70
2023-05-03T04:22:09.739Z,2.70
2023-05-03T04:24:39.770Z,2.77
2023-05-03T04:27:08.880Z,3.20
2023-05-03T04:29:38.997Z,2.80
2023-05-03T04:32:07.842Z,3.23
2023-05-03T04:34:36.523Z,2.37
2023-05-03T04:37:05.294Z,2.00
2023-05-03T04:39:33.275Z,2.40
2023-05-03T04:42:02.167Z,2.63
2023-05-03T04:44:29.418Z,2.03
2023-05-03T04:46:57.225Z,2.37
2023-05-03T04:49:26.378Z,2.30
2023-05-03T04:51:54.471Z,2.90
2023-05-03T04:54:23.260Z,1.93
2023-05-03T04:56:50.412Z,3.00
2023-05-03T04:59:19.016Z,1.90
2023-05-03T05:01:47.375Z,2.83
2023-05-03T05:04:15.387Z,2.57
2023-05-03T05:06:47.190Z,2.73
2023-05-03T05:09:31.171Z,2.70
2023-05-03T05:12:00.408Z,2.53
2023-05-03T05:14:33.628Z,2.60
2023-05-03T05:17:02.062Z,1.80
2023-05-03T05:19:29.269Z,2.60
2023-05-03T05:21:57.325Z,2.13
2023-05-03T05:24:30.177Z,2.10
2023-05-03T05:26:57.511Z,2.50
2023-05-03T05:29:24.972Z,2.23
2023-05-03T05:31:53.170Z,2.60
2023-05-03T05:34:20.883Z,2.00
2023-05-03T05:36:48.215Z,2.60
2023-05-03T05:39:15.866Z,2.87
2023-05-03T05:41:43.162Z,2.70
2023-05-03T05:44:10.708Z,2.87
2023-05-03T05:46:38.573Z,3.67
2023-05-03T05:49:05.812Z,3.60
2023-05-03T05:51:33.598Z,2.70
2023-05-03T05:54:00.910Z,4.60
2023-05-03T05:56:28.927Z,2.43
2023-05-03T05:58:56.279Z,2.03
2023-05-03T06:01:26.985Z,4.87
2023-05-03T06:03:55.497Z,2.40
2023-05-03T06:06:23.194Z,2.37
2023-05-03T06:08:51.545Z,2.20
2023-05-03T06:11:18.627Z,2.80
2023-05-03T06:13:46.257Z,2.70
2023-05-03T06:16:19.022Z,2.73
2023-05-03T06:18:49.141Z,3.60
2023-05-03T06:21:16.790Z,2.53
2023-05-03T06:23:44.113Z,2.43
2023-05-03T06:26:11.498Z,2.40
2023-05-03T06:28:39.212Z,2.67
2023-05-03T06:31:06.685Z,1.90
2023-05-03T06:33:34.118Z,2.20
2023-05-03T06:36:01.871Z,2.57
2023-05-03T06:38:29.314Z,4.20
2023-05-03T06:40:56.554Z,3.83
2023-05-03T06:43:23.922Z,2.83
2023-05-03T06:45:57.467Z,3.10
2023-05-03T06:48:25.091Z,2.53
2023-05-03T06:50:52.453Z,2.50
2023-05-03T06:53:19.997Z,2.77
2023-05-03T06:55:47.433Z,2.20
2023-05-03T06:58:14.998Z,2.70
2023-05-03T07:00:42.463Z,2.70
2023-05-03T07:03:09.751Z,2.50
2023-05-03T07:05:37.157Z,2.83
2023-05-03T07:08:04.545Z,2.50
2023-05-03T07:10:32.180Z,2.63
2023-05-03T07:12:59.231Z,2.60
2023-05-03T07:15:26.359Z,2.57
2023-05-03T07:17:53.512Z,2.73
2023-05-03T07:20:20.702Z,2.07
2023-05-03T07:22:48.348Z,1.60
2023-05-03T07:25:17.764Z,2.27
2023-05-03T07:27:45.470Z,2.73
2023-05-03T07:30:13.088Z,2.00
2023-05-03T07:32:40.684Z,2.27
2023-05-03T07:35:08.586Z,2.00
2023-05-03T07:37:35.772Z,2.87
2023-05-03T07:40:03.116Z,2.50
2023-05-03T07:42:30.439Z,2.60
2023-05-03T07:44:58.009Z,2.33
2023-05-03T07:47:25.104Z,2.03
2023-05-03T07:49:52.331Z,2.80
2023-05-03T07:52:23.556Z,2.43
2023-05-03T07:54:53.705Z,2.00
2023-05-03T07:57:23.313Z,2.43
2023-05-03T07:59:50.673Z,2.80
2023-05-03T08:02:17.853Z,2.30
2023-05-03T08:04:45.144Z,2.43
2023-05-03T08:07:12.612Z,2.20
2023-05-03T08:09:40.092Z,2.27
2023-05-03T08:12:07.733Z,2.20
2023-05-03T08:14:34.856Z,2.70
2023-05-03T08:17:01.911Z,3.37
2023-05-03T08:19:29.038Z,2.80
2023-05-03T08:21:56.096Z,2.30
2023-05-03T08:24:23.770Z,2.10
2023-05-03T08:26:51.757Z,2.60
2023-05-03T08:29:18.848Z,2.47
2023-05-03T08:31:46.509Z,2.60
2023-05-03T08:34:13.754Z,2.73
2023-05-03T08:36:40.823Z,2.47
2023-05-03T08:39:08.109Z,2.60
2023-05-03T08:41:35.364Z,2.60
2023-05-03T08:44:04.823Z,3.20
2023-05-03T08:46:32.158Z,2.03
2023-05-03T08:49:00.293Z,2.87
2023-05-03T08:51:28.302Z,2.70
2023-05-03T08:53:55.912Z,2.23
2023-05-03T08:56:39.967Z,2.60
2023-05-03T08:59:08.667Z,2.40
2023-05-03T09:01:42.676Z,3.10
2023-05-03T09:04:12.203Z,2.73
2023-05-03T09:06:39.966Z,3.07
2023-05-03T09:09:08.947Z,2.63
2023-05-03T09:11:39.389Z,2.67
2023-05-03T09:14:18.489Z,4.60
2023-05-03T09:16:47.409Z,2.57
2023-05-03T09:19:17.768Z,2.97
2023-05-03T09:21:50.440Z,2.93
2023-05-03T09:24:22.353Z,3.07
2023-05-03T09:26:52.008Z,3.13
2023-05-03T09:29:36.060Z,3.83
2023-05-03T09:32:06.449Z,3.27
2023-05-03T09:34:35.682Z,2.70
2023-05-03T09:37:03.104Z,2.87
2023-05-03T09:39:30.950Z,2.87
2023-05-03T09:41:58.524Z,2.30
2023-05-03T09:45:01.883Z,2.13
2023-05-03T09:47:31.989Z,2.17
2023-05-03T09:50:00.452Z,2.13
2023-05-03T09:52:30.726Z,2.50
2023-05-03T09:54:58.186Z,2.27
2023-05-03T09:57:26.186Z,2.53
2023-05-03T09:59:53.321Z,2.93
2023-05-03T10:02:21.889Z,2.50
2023-05-03T10:04:56.983Z,2.67
2023-05-03T10:07:26.278Z,2.83
2023-05-03T10:09:53.346Z,1.97
2023-05-03T10:12:21.416Z,2.20
2023-05-03T10:14:53.045Z,2.70
2023-05-03T10:17:46.088Z,2.83
2023-05-03T10:20:47.134Z,2.07
2023-05-03T10:23:14.650Z,2.40
2023-05-03T10:26:09.749Z,2.20
2023-05-03T10:28:40.363Z,1.90
2023-05-03T10:31:46.606Z,3.10
2023-05-03T10:34:25.011Z,2.30
2023-05-03T10:36:56.997Z,2.43
2023-05-03T10:39:27.605Z,2.73
2023-05-03T10:42:08.104Z,2.43
2023-05-03T10:44:40.575Z,2.27
2023-05-03T10:47:16.576Z,2.93
2023-05-03T10:49:43.881Z,2.00
2023-05-03T10:52:36.466Z,2.90
2023-05-03T10:55:14.290Z,2.40
2023-05-03T10:57:44.693Z,2.10
2023-05-03T11:00:39.216Z,2.00
2023-05-03T11:03:18.664Z,2.20
2023-05-03T11:05:48.455Z,2.47
2023-05-03T11:08:26.028Z,2.50
2023-05-03T11:11:00.972Z,3.10
2023-05-03T11:13:28.403Z,3.40
2023-05-03T11:15:56.573Z,2.30
2023-05-03T11:18:27.596Z,3.07
2023-05-03T11:20:55.939Z,2.30
2023-05-03T11:23:29.011Z,2.33
2023-05-03T11:25:59.756Z,1.90
2023-05-03T11:28:26.923Z,1.90
2023-05-03T11:30:54.988Z,2.30
2023-05-03T11:33:22.232Z,2.80
2023-05-03T11:35:49.521Z,3.60
2023-05-03T11:38:16.785Z,2.30
2023-05-03T11:40:44.374Z,1.73
2023-05-03T11:43:11.769Z,2.23
2023-05-03T11:45:45.572Z,2.20
2023-05-03T11:48:14.457Z,1.97
2023-05-03T11:50:56.517Z,2.70
2023-05-03T11:53:25.939Z,2.00
2023-05-03T11:55:55.993Z,1.70
2023-05-03T11:58:26.763Z,2.00
2023-05-03T12:00:57.045Z,2.50
2023-05-03T12:03:32.185Z,2.67
2023-05-03T12:06:02.365Z,2.63
2023-05-03T12:08:36.243Z,2.20
2023-05-03T12:11:07.485Z,1.80
2023-05-03T12:13:40.327Z,2.20
2023-05-03T12:16:15.672Z,1.90
2023-05-03T12:19:03.420Z,2.27
2023-05-03T12:22:03.401Z,1.90
2023-05-03T12:24:35.546Z,1.77
2023-05-03T12:27:08.227Z,1.80
2023-05-03T12:29:36.150Z,2.30
2023-05-03T12:32:04.922Z,2.10
2023-05-03T12:34:34.721Z,1.93
2023-05-03T12:37:06.088Z,1.43
2023-05-03T12:39:35.093Z,1.53
2023-05-03T12:42:09.371Z,1.30
2023-05-03T12:44:43.091Z,1.80
2023-05-03T12:47:11.388Z,2.00
2023-05-03T12:49:40.007Z,1.33
2023-05-03T12:52:32.518Z,1.70
2023-05-03T12:55:02.753Z,1.40
2023-05-03T12:57:33.970Z,1.23
2023-05-03T13:00:13.580Z,1.40
2023-05-03T13:03:20.146Z,1.77
2023-05-03T13:08:08.085Z,1.73
2023-05-03T13:10:41.366Z,1.20
2023-05-03T13:13:09.541Z,1.70
2023-05-03T13:15:37.551Z,1.50
2023-05-03T13:18:08.048Z,1.33
2023-05-03T13:20:39.325Z,1.47
2023-05-03T13:23:07.030Z,1.60
2023-05-03T13:25:34.230Z,2.20
2023-05-03T13:28:01.875Z,1.30
2023-05-03T13:30:30.358Z,1.70
2023-05-03T13:32:57.559Z,1.30
2023-05-03T13:35:24.730Z,1.13
2023-05-03T13:37:52.845Z,1.60
2023-05-03T13:40:20.023Z,1.50
2023-05-03T13:42:48.874Z,1.47
2023-05-03T13:45:16.443Z,1.47
2023-05-03T13:48:04.949Z,1.77
2023-05-03T13:50:30.941Z,1.80
2023-05-03T13:52:58.361Z,1.30
2023-05-03T13:55:26.795Z,1.87
2023-05-03T13:57:53.909Z,1.63
2023-05-03T14:00:21.399Z,1.80
2023-05-03T14:02:48.828Z,1.23
2023-05-03T14:05:16.555Z,1.37
2023-05-03T14:07:43.756Z,1.50
2023-05-03T14:10:11.887Z,1.60
2023-05-03T14:12:39.166Z,1.80
2023-05-03T14:15:07.733Z,1.63
2023-05-03T14:17:34.868Z,1.43
2023-05-03T14:20:02.500Z,1.80
2023-05-03T14:22:29.838Z,1.73
2023-05-03T14:24:56.928Z,1.93
2023-05-03T14:27:23.984Z,1.53
2023-05-03T14:29:51.526Z,1.60
2023-05-03T14:32:23.189Z,1.50
2023-05-03T14:34:50.508Z,1.50
2023-05-03T14:37:17.607Z,1.73
2023-05-03T14:39:44.728Z,1.47
2023-05-03T14:42:11.809Z,1.77
2023-05-03T14:44:38.853Z,1.97
2023-05-03T14:47:07.360Z,1.27
2023-05-03T14:49:40.503Z,1.30
2023-05-03T14:52:08.897Z,1.50
2023-05-03T14:54:37.419Z,1.60
2023-05-03T14:57:05.046Z,1.10
2023-05-03T14:59:33.724Z,1.63
2023-05-03T15:02:01.675Z,1.50
2023-05-03T15:04:29.618Z,1.33
2023-05-03T15:07:02.774Z,1.37
2023-05-03T15:09:33.568Z,1.40
2023-05-03T15:12:04.301Z,1.23
2023-05-03T15:14:31.374Z,1.23
2023-05-03T15:16:58.561Z,1.50
2023-05-03T15:19:26.774Z,1.10
2023-05-03T15:21:54.240Z,1.60
2023-05-03T15:24:22.284Z,1.50
2023-05-03T15:26:49.377Z,1.20
2023-05-03T15:29:16.577Z,1.40
2023-05-03T15:31:44.064Z,1.47
2023-05-03T15:34:12.332Z,2.47
2023-05-03T15:36:40.647Z,2.10
2023-05-03T15:39:09.434Z,1.37
2023-05-03T15:41:36.632Z,1.63
2023-05-03T15:44:05.514Z,1.40
2023-05-03T15:46:34.343Z,1.37
2023-05-03T15:49:01.852Z,1.47
2023-05-03T15:51:29.449Z,1.40
2023-05-03T15:53:56.623Z,2.30
2023-05-03T15:56:23.785Z,1.27
2023-05-03T15:58:51.041Z,1.50
2023-05-03T16:01:18.784Z,1.53
2023-05-03T16:03:46.285Z,1.57
2023-05-03T16:06:16.812Z,1.30
2023-05-03T16:08:44.580Z,1.03
2023-05-03T16:11:12.778Z,1.10
2023-05-03T16:13:39.885Z,1.30
2023-05-03T16:16:07.120Z,1.50
2023-05-03T16:18:34.271Z,1.40
2023-05-03T16:21:02.582Z,1.37
2023-05-03T16:23:29.963Z,1.30
2023-05-03T16:25:57.079Z,1.20
2023-05-03T16:28:24.453Z,1.87
2023-05-03T16:30:51.745Z,1.20
2023-05-03T16:33:19.528Z,1.63
2023-05-03T16:35:46.635Z,2.50
2023-05-03T16:38:13.884Z,19.30
2023-05-03T16:40:42.504Z,5.40
2023-05-03T16:43:10.256Z,2.43
2023-05-03T16:45:37.716Z,4.03
2023-05-03T16:48:06.682Z,2.60
2023-05-03T16:50:37.270Z,2.20
2023-05-03T16:53:04.385Z,1.20
2023-05-03T16:55:31.769Z,4.47
2023-05-03T16:58:00.166Z,1.70
2023-05-03T17:00:27.554Z,2.50
2023-05-03T17:02:54.805Z,4.73
2023-05-03T17:05:22.660Z,3.07
2023-05-03T17:07:49.902Z,7.40
2023-05-03T17:10:17.120Z,9.93
2023-05-03T17:12:47.939Z,2.10
2023-05-03T17:15:15.316Z,4.27
2023-05-03T17:17:42.710Z,1.70
2023-05-03T17:20:10.877Z,2.20
2023-05-03T17:22:38.029Z,2.17
2023-05-03T17:25:09.759Z,1.50
2023-05-03T17:27:40.377Z,1.13
2023-05-03T17:30:09.699Z,1.37
2023-05-03T17:32:37.128Z,2.30
2023-05-03T17:35:04.566Z,1.30
2023-05-03T17:37:31.670Z,1.73
2023-05-03T17:39:58.728Z,1.87
2023-05-03T17:42:26.084Z,1.93
2023-05-03T17:44:54.902Z,2.10
2023-05-03T17:47:23.029Z,2.20
2023-05-03T17:49:50.220Z,1.77
2023-05-03T17:52:17.681Z,2.47
2023-05-03T17:54:46.233Z,2.70
2023-05-03T17:57:13.333Z,2.30
2023-05-03T17:59:40.872Z,1.77
2023-05-03T18:02:08.006Z,1.90
2023-05-03T18:04:35.666Z,2.60
2023-05-03T18:07:03.141Z,2.80
2023-05-03T18:09:31.364Z,1.80
2023-05-03T18:12:00.173Z,1.50
2023-05-03T18:14:27.359Z,1.70
2023-05-03T18:16:55.279Z,2.33
2023-05-03T18:19:22.690Z,2.07
2023-05-03T18:21:49.778Z,2.57
2023-05-03T18:24:16.946Z,1.83
2023-05-03T18:26:44.221Z,1.93
2023-05-03T18:29:11.541Z,2.57
2023-05-03T18:31:38.691Z,1.50
2023-05-03T18:34:06.464Z,1.90
2023-05-03T18:36:33.957Z,3.77
2023-05-03T18:39:01.225Z,1.73
2023-05-03T18:41:28.530Z,2.77
2023-05-03T18:43:57.551Z,2.40
2023-05-03T18:46:24.740Z,2.77
2023-05-03T18:48:53.164Z,3.90
2023-05-03T18:51:20.224Z,3.93
2023-05-03T18:53:47.282Z,3.03
2023-05-03T18:56:14.464Z,3.50
2023-05-03T18:58:42.978Z,3.40
2023-05-03T19:01:10.205Z,3.83
2023-05-03T19:03:37.536Z,4.53
2023-05-03T19:06:07.425Z,4.53
2023-05-03T19:08:35.741Z,4.03
2023-05-03T19:11:17.206Z,4.23
2023-05-03T19:13:45.664Z,5.23
2023-05-03T19:16:14.057Z,5.47
2023-05-03T19:18:41.987Z,4.57
2023-05-03T19:21:09.169Z,6.63
2023-05-03T19:23:36.393Z,8.83
2023-05-03T19:26:03.770Z,6.37
2023-05-03T19:28:31.767Z,5.30
2023-05-03T19:31:02.951Z,5.90
2023-05-03T19:33:30.155Z,4.50
2023-05-03T19:35:57.891Z,5.37
2023-05-03T19:38:25.016Z,6.27
2023-05-03T19:40:57.445Z,5.83
2023-05-03T19:43:24.805Z,5.00
2023-05-03T19:45:52.720Z,5.00
2023-05-03T19:48:19.947Z,6.30
2023-05-03T19:50:47.754Z,5.40
2023-05-03T19:53:14.856Z,4.00
2023-05-03T19:55:42.026Z,5.50
2023-05-03T19:58:09.163Z,4.03
2023-05-03T20:00:36.273Z,4.10
2023-05-03T20:03:03.565Z,4.70
2023-05-03T20:05:31.048Z,3.73
2023-05-03T20:07:58.209Z,3.80
2023-05-03T20:10:25.453Z,3.93
2023-05-03T20:12:52.798Z,3.27
2023-05-03T20:15:20.062Z,2.83
2023-05-03T20:17:47.245Z,2.80
2023-05-03T20:20:16.368Z,3.77
2023-05-03T20:22:43.705Z,3.60
2023-05-03T20:25:10.877Z,3.33
2023-05-03T20:27:38.078Z,3.77
2023-05-03T20:30:06.702Z,4.10
2023-05-03T20:32:36.414Z,3.97
2023-05-03T20:35:05.072Z,3.63
2023-05-03T20:37:32.565Z,2.67
2023-05-03T20:40:00.170Z,3.67
2023-05-03T20:42:27.485Z,4.00
2023-05-03T20:44:54.799Z,3.97
2023-05-03T20:47:23.192Z,3.97
2023-05-03T20:49:50.283Z,4.50
2023-05-03T20:52:17.461Z,3.70
2023-05-03T20:54:45.700Z,5.10
2023-05-03T20:57:13.820Z,4.63
2023-05-03T20:59:40.946Z,4.20
2023-05-03T21:02:08.316Z,5.50
2023-05-03T21:04:36.428Z,6.97
2023-05-03T21:07:03.850Z,6.03
2023-05-03T21:09:31.579Z,4.10
2023-05-03T21:11:58.604Z,4.37
2023-05-03T21:14:25.709Z,5.10
2023-05-03T21:16:52.833Z,5.63
2023-05-03T21:19:19.958Z,4.40
2023-05-03T21:21:48.047Z,5.30
2023-05-03T21:24:15.126Z,6.13
2023-05-03T21:26:42.407Z,5.43
2023-05-03T21:29:09.568Z,6.37
2023-05-03T21:31:37.737Z,5.77
2023-05-03T21:34:05.020Z,5.50
2023-05-03T21:36:33.481Z,6.20
2023-05-03T21:39:00.650Z,5.53
2023-05-03T21:41:27.914Z,5.83
2023-05-03T21:43:54.936Z,6.30
2023-05-03T21:46:23.055Z,7.00
2023-05-03T21:48:50.209Z,5.80
2023-05-03T21:51:21.905Z,7.00
2023-05-03T21:53:49.867Z,6.20
2023-05-03T21:56:17.196Z,6.70
2023-05-03T21:58:45.475Z,9.70
2023-05-03T22:01:12.978Z,9.50
2023-05-03T22:03:40.420Z,8.63
2023-05-03T22:06:09.414Z,8.90
2023-05-03T22:08:36.668Z,9.40
2023-05-03T22:11:07.267Z,8.30
2023-05-03T22:13:43.183Z,8.57
2023-05-03T22:16:18.298Z,6.77
2023-05-03T22:18:45.520Z,7.13
2023-05-03T22:21:12.751Z,6.97
2023-05-03T22:23:39.841Z,7.00
2023-05-03T22:26:07.363Z,6.80
2023-05-03T22:28:34.564Z,7.23
2023-05-03T22:31:01.688Z,7.00
2023-05-03T22:33:28.819Z,6.87
2023-05-03T22:35:55.895Z,6.80
2023-05-03T22:38:23.113Z,6.93
2023-05-03T22:40:50.213Z,6.20
2023-05-03T22:43:17.425Z,7.80
2023-05-03T22:45:44.548Z,6.20
2023-05-03T22:48:11.652Z,5.73
2023-05-03T22:50:38.790Z,7.07
2023-05-03T22:53:06.038Z,6.30
2023-05-03T22:55:33.894Z,7.10
2023-05-03T22:58:01.073Z,6.67
2023-05-03T23:00:28.228Z,7.80
2023-05-03T23:02:55.737Z,7.70
2023-05-03T23:05:22.917Z,7.70
2023-05-03T23:07:50.000Z,7.80
2023-05-03T23:10:17.316Z,7.40
2023-05-03T23:12:44.489Z,6.97
2023-05-03T23:15:11.961Z,7.10
2023-05-03T23:17:39.065Z,6.83
2023-05-03T23:20:07.331Z,6.20
2023-05-03T23:22:34.865Z,5.87
2023-05-03T23:25:02.061Z,6.20
2023-05-03T23:27:29.064Z,5.40
2023-05-03T23:29:56.761Z,6.53
2023-05-03T23:32:24.297Z,5.40
2023-05-03T23:34:52.115Z,5.97
2023-05-03T23:37:19.177Z,5.27
2023-05-03T23:39:46.887Z,6.03
2023-05-03T23:42:14.047Z,5.53
2023-05-03T23:44:53.582Z,4.90
2023-05-03T23:47:21.604Z,4.87
2023-05-03T23:49:48.951Z,5.83
2023-05-03T23:52:19.020Z,6.17
2023-05-03T23:54:46.592Z,5.50
2023-05-03T23:57:13.751Z,6.63
2023-05-03T23:59:40.912Z,6.73
